Time,TemperatureF,DewpointF,PressureIn,WindDirection,WindDirectionDegrees,WindSpeedMPH,WindSpeedGustMPH,Humidity,HourlyPrecipIn,Conditions,Clouds,dailyrainin,SolarRadiationWatts/m^2,SoftwareType,DateUTC
2013-07-10 00:22:00,62.0,62.0,-100.00,West,265,2.0,9.0,100,0.00,,,0.00,0.000000,,2013-07-10 04:22:00,
2013-07-10 00:33:00,62.0,62.0,-100.00,West,265,2.0,9.0,100,0.00,,,0.00,0.000000,,2013-07-10 04:33:00,
2013-07-10 00:43:00,62.0,62.0,-100.00,West,265,2.0,9.0,100,0.00,,,0.00,0.000000,,2013-07-10 04:43:00,
2013-07-10 00:52:00,62.0,62.0,-100.00,West,265,2.0,9.0,100,0.00,,,0.00,0.000000,,2013-07-10 04:52:00,
2013-07-10 01:32:00,62.0,62.0,-100.00,West,280,3.0,5.0,100,0.00,,,0.00,0.000000,,2013-07-10 05:32:00,
2013-07-10 01:42:00,62.0,62.0,-100.00,West,280,3.0,5.0,100,0.00,,,0.00,0.000000,,2013-07-10 05:42:00,
2013-07-10 01:52:00,62.0,62.0,-100.00,West,280,3.0,5.0,100,0.00,,,0.00,0.000000,,2013-07-10 05:52:00,
2013-07-10 02:22:00,62.0,62.0,-100.00,WNW,303,6.0,14.0,100,0.00,,,0.00,0.000000,,2013-07-10 06:22:00,
2013-07-10 02:32:00,62.0,62.0,-100.00,WNW,303,6.0,14.0,100,0.00,,,0.00,0.000000,,2013-07-10 06:32:00,
2013-07-10 02:42:00,62.0,62.0,-100.00,WNW,303,6.0,14.0,100,0.00,,,0.00,0.000000,,2013-07-10 06:42:00,
2013-07-10 02:52:00,62.0,62.0,-100.00,WNW,303,6.0,14.0,100,0.00,,,0.00,0.000000,,2013-07-10 06:52:00,
2013-07-10 03:33:00,60.0,59.0,-100.00,WNW,297,5.0,15.0,98,0.00,,,0.00,0.000000,,2013-07-10 07:33:00,
2013-07-10 03:43:00,60.0,59.0,-100.00,WNW,297,5.0,15.0,98,0.00,,,0.00,0.000000,,2013-07-10 07:43:00,
2013-07-10 03:53:00,60.0,59.0,-100.00,WNW,297,5.0,15.0,98,0.00,,,0.00,0.000000,,2013-07-10 07:53:00,
2013-07-10 04:23:00,60.0,60.0,-100.00,WNW,299,4.0,12.0,99,0.00,,,0.00,0.000000,,2013-07-10 08:23:00,
2013-07-10 04:33:00,60.0,60.0,-100.00,WNW,299,4.0,12.0,99,0.00,,,0.00,0.000000,,2013-07-10 08:33:00,
2013-07-10 04:42:00,60.0,60.0,-100.00,WNW,299,4.0,12.0,99,0.00,,,0.00,0.000000,,2013-07-10 08:42:00,
2013-07-10 04:53:00,60.0,60.0,-100.00,WNW,299,4.0,12.0,99,0.00,,,0.00,0.000000,,2013-07-10 08:53:00,
2013-07-10 05:22:00,58.0,57.0,-100.00,WNW,290,6.0,15.0,97,0.00,,,0.00,0.000000,,2013-07-10 09:22:00,
2013-07-10 05:32:00,58.0,57.0,-100.00,WNW,290,6.0,15.0,97,0.00,,,0.00,0.000000,,2013-07-10 09:32:00,
2013-07-10 05:42:00,58.0,57.0,-100.00,WNW,290,6.0,15.0,97,0.00,,,0.00,0.000000,,2013-07-10 09:42:00,
2013-07-10 05:52:00,58.0,57.0,-100.00,WNW,290,6.0,15.0,97,0.00,,,0.00,0.000000,,2013-07-10 09:52:00,
2013-07-10 05:56:00,-999.0,-99.9,-100.00,WNW,299,4.0,10.0,-999,-99.99,,,-99.99,0.000000,,2013-07-10 09:56:00,
2013-07-10 06:23:00,58.0,57.0,-100.00,WNW,299,4.0,10.0,97,0.00,,,0.00,0.000000,,2013-07-10 10:23:00,
2013-07-10 06:32:00,58.0,57.0,-100.00,WNW,299,4.0,10.0,97,0.00,,,0.00,0.000000,,2013-07-10 10:32:00,
2013-07-10 06:50:00,-999.0,-99.9,-100.00,WNW,299,4.0,10.0,-999,-99.99,,,-99.99,0.000000,,2013-07-10 10:50:00,
2013-07-10 10:22:00,61.0,56.0,-100.00,WNW,294,7.0,16.0,85,-99.99,,,0.00,253.000000,,2013-07-10 14:22:00,
2013-07-10 10:33:00,61.0,56.0,-100.00,WNW,294,7.0,16.0,85,-99.99,,,0.00,253.000000,,2013-07-10 14:33:00,
2013-07-10 10:43:00,61.0,56.0,-100.00,WNW,294,7.0,16.0,85,-99.99,,,0.00,253.000000,,2013-07-10 14:43:00,
2013-07-10 10:53:00,61.0,56.0,-100.00,WNW,294,7.0,16.0,85,-99.99,,,0.00,253.000000,,2013-07-10 14:53:00,
2013-07-10 11:22:00,63.0,57.0,-100.00,WNW,301,7.0,14.0,82,0.00,,,0.00,370.000000,,2013-07-10 15:22:00,
2013-07-10 11:34:00,63.0,57.0,-100.00,WNW,301,7.0,14.0,82,0.00,,,0.00,370.000000,,2013-07-10 15:34:00,
2013-07-10 11:42:00,63.0,57.0,-100.00,WNW,301,7.0,14.0,82,0.00,,,0.00,370.000000,,2013-07-10 15:42:00,
2013-07-10 11:52:00,63.0,57.0,-100.00,WNW,301,7.0,14.0,82,0.00,,,0.00,370.000000,,2013-07-10 15:52:00,
2013-07-10 12:33:00,65.0,58.0,-100.00,NW,306,6.0,15.0,78,0.00,,,0.00,495.000000,,2013-07-10 16:33:00,
2013-07-10 12:44:00,65.0,58.0,-100.00,NW,306,6.0,15.0,78,0.00,,,0.00,495.000000,,2013-07-10 16:44:00,
2013-07-10 12:53:00,65.0,58.0,-100.00,NW,306,6.0,15.0,78,0.00,,,0.00,495.000000,,2013-07-10 16:53:00,
2013-07-10 13:23:00,66.0,55.0,-100.00,NW,311,7.0,15.0,68,0.00,,,0.00,589.000000,,2013-07-10 17:23:00,
2013-07-10 13:32:00,66.0,55.0,-100.00,NW,311,7.0,15.0,68,0.00,,,0.00,589.000000,,2013-07-10 17:32:00,
2013-07-10 13:43:00,66.0,55.0,-100.00,NW,311,7.0,15.0,68,0.00,,,0.00,589.000000,,2013-07-10 17:43:00,
2013-07-10 13:52:00,66.0,55.0,-100.00,NW,311,7.0,15.0,68,0.00,,,0.00,589.000000,,2013-07-10 17:52:00,
2013-07-10 14:22:00,67.0,56.0,-100.00,WNW,300,7.0,17.0,67,0.00,,,0.00,637.000000,,2013-07-10 18:22:00,
2013-07-10 14:32:00,67.0,56.0,-100.00,WNW,300,7.0,17.0,67,0.00,,,0.00,637.000000,,2013-07-10 18:32:00,
2013-07-10 14:44:00,67.0,56.0,-100.00,WNW,300,7.0,17.0,67,0.00,,,0.00,637.000000,,2013-07-10 18:44:00,
2013-07-10 14:53:00,67.0,56.0,-100.00,WNW,300,7.0,17.0,67,0.00,,,0.00,637.000000,,2013-07-10 18:53:00,
2013-07-10 15:32:00,69.0,55.0,-100.00,NW,311,8.0,19.0,61,0.00,,,0.00,731.000000,,2013-07-10 19:32:00,
2013-07-10 15:42:00,69.0,55.0,-100.00,NW,311,8.0,19.0,61,0.00,,,0.00,731.000000,,2013-07-10 19:42:00,
2013-07-10 15:52:00,69.0,55.0,-100.00,NW,311,8.0,19.0,61,0.00,,,0.00,731.000000,,2013-07-10 19:52:00,
2013-07-10 16:22:00,71.0,54.0,-100.00,NW,323,7.0,23.0,54,0.00,,,0.00,822.000000,,2013-07-10 20:22:00,
2013-07-10 16:32:00,71.0,54.0,-100.00,NW,323,7.0,23.0,54,0.00,,,0.00,822.000000,,2013-07-10 20:32:00,
2013-07-10 16:43:00,71.0,54.0,-100.00,NW,323,7.0,23.0,54,0.00,,,0.00,822.000000,,2013-07-10 20:43:00,
2013-07-10 16:52:00,71.0,54.0,-100.00,NW,323,7.0,23.0,54,0.00,,,0.00,822.000000,,2013-07-10 20:52:00,
2013-07-10 17:22:00,72.0,53.0,-100.00,NW,304,7.0,17.0,51,0.00,,,0.00,919.000000,,2013-07-10 21:22:00,
2013-07-10 17:32:00,72.0,53.0,-100.00,NW,304,7.0,17.0,51,0.00,,,0.00,919.000000,,2013-07-10 21:32:00,
2013-07-10 17:42:00,72.0,53.0,-100.00,NW,304,7.0,17.0,51,0.00,,,0.00,919.000000,,2013-07-10 21:42:00,
2013-07-10 17:52:00,72.0,53.0,-100.00,NW,304,7.0,17.0,51,0.00,,,0.00,919.000000,,2013-07-10 21:52:00,
2013-07-10 18:33:00,70.0,52.0,-100.00,NW,319,6.0,20.0,52,0.00,,,0.00,660.000000,,2013-07-10 22:33:00,
2013-07-10 18:42:00,70.0,52.0,-100.00,NW,319,6.0,20.0,52,0.00,,,0.00,660.000000,,2013-07-10 22:42:00,
2013-07-10 18:53:00,70.0,52.0,-100.00,NW,319,6.0,20.0,52,0.00,,,0.00,660.000000,,2013-07-10 22:53:00,
2013-07-10 19:32:00,72.0,52.0,-100.00,WNW,301,4.0,16.0,49,0.00,,,-99.99,570.000000,,2013-07-10 23:32:00,
2013-07-10 19:43:00,72.0,52.0,-100.00,WNW,301,4.0,16.0,49,0.00,,,-99.99,570.000000,,2013-07-10 23:43:00,
2013-07-10 19:52:00,72.0,52.0,-100.00,WNW,301,4.0,16.0,49,0.00,,,-99.99,570.000000,,2013-07-10 23:52:00,
2013-07-10 20:32:00,70.0,50.0,-100.00,WNW,290,5.0,13.0,50,0.00,,,0.00,382.000000,,2013-07-11 00:32:00,
2013-07-10 20:42:00,70.0,50.0,-100.00,WNW,290,5.0,13.0,50,0.00,,,0.00,382.000000,,2013-07-11 00:42:00,
2013-07-10 20:52:00,70.0,50.0,-100.00,WNW,290,5.0,13.0,50,0.00,,,0.00,382.000000,,2013-07-11 00:52:00,
2013-07-10 21:32:00,66.0,52.0,-100.00,WNW,293,2.0,10.0,61,0.00,,,0.00,177.000000,,2013-07-11 01:32:00,
2013-07-10 21:43:00,66.0,52.0,-100.00,WNW,293,2.0,10.0,61,0.00,,,0.00,177.000000,,2013-07-11 01:43:00,
2013-07-10 21:52:00,66.0,52.0,-100.00,WNW,293,2.0,10.0,61,0.00,,,0.00,177.000000,,2013-07-11 01:52:00,
2013-07-10 22:43:00,56.0,53.0,-100.00,SW,226,0.0,5.0,91,0.00,,,0.00,14.000000,,2013-07-11 02:43:00,
2013-07-10 22:53:00,56.0,53.0,-100.00,SW,226,0.0,5.0,91,0.00,,,0.00,14.000000,,2013-07-11 02:53:00,
2013-07-10 23:33:00,52.0,52.0,-100.00,SSW,207,0.0,0.0,99,0.00,,,0.00,0.000000,,2013-07-11 03:33:00,
2013-07-10 23:42:00,52.0,52.0,-100.00,SSW,207,0.0,0.0,99,0.00,,,0.00,0.000000,,2013-07-11 03:42:00,
2013-07-10 23:52:00,52.0,52.0,-100.00,SSW,207,0.0,0.0,99,0.00,,,0.00,0.000000,,2013-07-11 03:52:00,